Anne Sibum — C4YC2 — position and weather

sailwx.info

Track history (hours):
 
Tides and Currents Weather Stations Pressure Air Temp Water Temp Dewpoint Dewpoint Depression Visibility Wind Speed Wind Dir Waves Ship Positions

Anne Sibum

Last reported at 2016-Jun-27 07:31 UTC. Time now 2016-Jun-27 07:48 UTC.
Position N 51°59' E 004°02'.

Length 151 m; draft 7.5 m.

Type: Ship (hazmat cat A). MMSI: 209322000.

Date/timePositionNaut miles runAvg speedWind from/ knotsBaromVisibWave heightAir tempDewpointWater temp
2016-Jun-27 07:31N 51°59' E 004°02'0 0.0
2016-Jun-27 06:31N 51°59' E 004°02'0 0.0
2016-Jun-27 05:33N 51°59' E 004°02'0 0.0
2016-Jun-27 04:33N 51°59' E 004°02'0 0.0
2016-Jun-27 03:32N 51°59' E 004°02'0 0.0
2016-Jun-27 02:32N 51°59' E 004°02'0 0.0
2016-Jun-27 01:28N 51°59' E 004°02'0 0.0
2016-Jun-27 00:31N 51°59' E 004°02'0 0.0
2016-Jun-26 23:28N 51°59' E 004°02'0 0.0
2016-Jun-26 22:33N 51°59' E 004°02'0 0.0
2016-Jun-26 21:33N 51°59' E 004°02'0 0.0
2016-Jun-26 20:32N 51°59' E 004°02'0 0.0
2016-Jun-26 19:32N 51°59' E 004°02'0 0.0
2016-Jun-26 18:33N 51°59' E 004°02'1 1.2
2016-Jun-26 17:33N 51°58' E 004°03'0 0.0
2016-Jun-26 16:32N 51°58' E 004°03'0 0.0
2016-Jun-26 15:32N 51°58' E 004°03'0 0.0
2016-Jun-26 14:31N 51°58' E 004°03'0 0.0
2016-Jun-26 13:31N 51°58' E 004°03'0 0.0
2016-Jun-26 12:34N 51°58' E 004°03'0 0.0
2016-Jun-26 11:33N 51°58' E 004°03'0 0.0
2016-Jun-26 10:33N 51°58' E 004°03'0 0.0
2016-Jun-26 09:32N 51°58' E 004°03'0 0.0
2016-Jun-26 08:32N 51°58' E 004°03'1 1.0
2016-Jun-26 07:33N 51°57' E 004°04'0 0.1
2016-Jun-26 06:32N 51°57' E 004°04'0 0.0
2016-Jun-26 05:32N 51°57' E 004°04'0 0.0
2016-Jun-26 04:31N 51°57' E 004°04'0 0.0
2016-Jun-26 03:31N 51°57' E 004°04'0 0.0
2016-Jun-26 02:31N 51°57' E 004°04'0 0.0
2016-Jun-26 01:33N 51°57' E 004°04'0 0.0
2016-Jun-26 00:33N 51°57' E 004°04'0 0.0
2016-Jun-25 23:32N 51°57' E 004°04'0 0.0
2016-Jun-25 22:29N 51°57' E 004°04'0 0.2
2016-Jun-25 21:34N 51°57' E 004°04'1 0.8
2016-Jun-25 20:31N 51°58' E 004°03'0 0.0
2016-Jun-25 19:33N 51°58' E 004°03'0 0.0
2016-Jun-25 18:33N 51°58' E 004°03'0 0.0
2016-Jun-25 17:32N 51°58' E 004°03'1 1.2
2016-Jun-25 16:33N 51°58' E 004°02'2 1.6
2016-Jun-25 15:33N 51°57' E 004°00'0 0.0
2016-Jun-25 14:33N 51°57' E 004°00'0 0.0
2016-Jun-25 13:32N 51°57' E 004°00'0 0.0
2016-Jun-25 12:26N 51°57' E 004°00'0 0.0
2016-Jun-25 11:31N 51°57' E 004°00'0 0.0
2016-Jun-25 10:31N 51°57' E 004°00'2 2.3
2016-Jun-25 09:33N 51°58' E 004°03'1 0.6
2016-Jun-25 08:31N 51°57' E 004°03'0 0.0
2016-Jun-25 07:31N 51°57' E 004°03'0 0.0
2016-Jun-25 06:31N 51°57' E 004°03'0 0.0
2016-Jun-25 05:33N 51°57' E 004°03'0 0.0
2016-Jun-25 04:33N 51°57' E 004°03'0 0.0
2016-Jun-25 03:32N 51°57' E 004°03'2 2.3
2016-Jun-25 02:33N 51°59' E 004°05'1111.0
2016-Jun-25 01:33N 51°54' E 004°21'3 2.4
2016-Jun-25 00:28N 51°53' E 004°25'0 0.0
2016-Jun-24 23:28N 51°53' E 004°25'0 0.0
2016-Jun-24 22:31N 51°53' E 004°25'0 0.0
2016-Jun-24 21:33N 51°53' E 004°25'0 0.0
2016-Jun-24 20:30N 51°53' E 004°25'0 0.0
2016-Jun-24 19:26N 51°53' E 004°25'0 0.0
2016-Jun-24 18:32N 51°53' E 004°25'0 0.0
2016-Jun-24 17:31N 51°53' E 004°25'0 0.0
2016-Jun-24 16:32N 51°53' E 004°25'0 0.0
2016-Jun-24 15:31N 51°53' E 004°25'0 0.0
2016-Jun-24 14:30N 51°53' E 004°25'0 0.0
2016-Jun-24 13:33N 51°53' E 004°25'0 0.0
2016-Jun-24 12:33N 51°53' E 004°25'0 0.0
2016-Jun-24 11:34N 51°53' E 004°25'0 0.0
2016-Jun-24 10:33N 51°53' E 004°25'5 5.0
2016-Jun-24 09:33N 51°54' E 004°17'10 9.9
2016-Jun-24 08:33N 51°59' E 004°03'1312.6
2016-Jun-24 07:33N 51°58' E 003°43'5413.4
2016-Jun-24 03:32N 51°36' E 002°24'1312.9
2016-Jun-24 02:34N 51°26' E 002°11'1312.9
2016-Jun-24 01:33N 51°14' E 002°03'1414.4
2016-Jun-24 00:33N 51°05' E 001°46'1413.8
2016-Jun-23 23:32N 50°55' E 001°31'6115.0
2016-Jun-23 19:27N 50°22' E 000°09'1516.2
2016-Jun-23 18:33N 50°19' W 000°13'9315.0
2016-Jun-23 12:19N 50°10' W 002°38'1317.5
2016-Jun-23 11:33N 50°08' W 002°59'1817.7
2016-Jun-23 10:34N 50°04' W 003°26'1818.1
2016-Jun-23 09:33N 49°60' W 003°53'2017.3
2016-Jun-23 08:23N 49°59' W 004°25'1517.7
2016-Jun-23 07:33N 49°57' W 004°47'3816.7
2016-Jun-23 05:16N 49°55' W 005°47'5814.4
2016-Jun-23 01:14N 50°53' W 006°01'1717.2
2016-Jun-23 00:16N 51°09' W 005°60'5815.5
2016-Jun-22 20:33N 52°07' W 005°51'1414.4
2016-Jun-22 19:33N 52°21' W 005°48'10116.7
2016-Jun-22 13:32N 54°01' W 005°24'1616.3
2016-Jun-22 12:33N 54°17' W 005°21'1616.3
2016-Jun-22 11:33N 54°33' W 005°22'1313.3
2016-Jun-22 10:33N 54°42' W 005°39'9 4.1
2016-Jun-22 08:22N 54°38' W 005°53'0 0.0
2016-Jun-22 05:23N 54°38' W 005°53'0 0.0
2016-Jun-22 03:10N 54°38' W 005°53'0 0.0
2016-Jun-22 02:28N 54°38' W 005°53'0 0.0
2016-Jun-22 01:03N 54°38' W 005°53'0 0.0
2016-Jun-21 01:31N 54°38' W 005°53'6 6.5
2016-Jun-21 00:33N 54°42' W 005°45'1313.4
2016-Jun-20 23:34N 54°35' W 005°25'1716.6
2016-Jun-20 22:34N 54°19' W 005°22'1717.0
2016-Jun-20 21:33N 54°03' W 005°33'102 6.4
2016-Jun-20 05:34N 52°21' W 005°48'8315.5
2016-Jun-20 00:12N 50°58' W 005°49'1015.6
2016-Jun-19 23:33N 50°48' W 005°48'1616.0
2016-Jun-19 22:33N 50°32' W 005°51'4611.4
2016-Jun-19 18:31N 49°56' W 005°07'1415.1
2016-Jun-19 17:33N 49°58' W 004°45'1312.8
2016-Jun-19 16:33N 50°01' W 004°25'1515.1
2016-Jun-19 15:33N 50°03' W 004°02'1616.1
2016-Jun-19 14:33N 50°06' W 003°38'1717.3
2016-Jun-19 13:33N 50°09' W 003°11'1818.0
2016-Jun-19 12:33N 50°13' W 002°43'8616.0
2016-Jun-19 07:13N 50°28' W 000°32'1014.8
2016-Jun-19 06:32N 50°30' W 000°16'1616.0
2016-Jun-19 05:33N 50°34' E 000°08'1817.0
2016-Jun-19 04:31N 50°39' E 000°34'2317.5
2016-Jun-19 03:12N 50°52' E 001°04'1117.0
2016-Jun-19 02:34N 50°59' E 001°17'1615.8
2016-Jun-19 01:34N 51°09' E 001°37'1414.4
2016-Jun-19 00:33N 51°20' E 001°52'1514.8
2016-Jun-18 23:33N 51°32' E 002°06'6615.0
2016-Jun-18 19:12N 52°02' E 003°40'914.1
2016-Jun-18 18:33N 52°02' E 003°55'10 9.9
2016-Jun-18 17:34N 51°58' E 004°09'1010.0
2016-Jun-18 16:34N 51°54' E 004°24'1 1.0
2016-Jun-18 15:31N 51°53' E 004°26'0 0.0
2016-Jun-18 14:31N 51°53' E 004°26'0 0.0
2016-Jun-18 13:31N 51°53' E 004°26'0 0.0
2016-Jun-18 12:33N 51°53' E 004°26'0 0.0
2016-Jun-18 11:30N 51°53' E 004°26'0 0.0
2016-Jun-18 10:32N 51°53' E 004°26'1 1.3
2016-Jun-18 09:34N 51°54' E 004°24'1 1.2
2016-Jun-18 08:32N 51°53' E 004°25'0 0.0
2016-Jun-18 07:32N 51°53' E 004°25'0 0.0
2016-Jun-18 06:32N 51°53' E 004°25'0 0.0
2016-Jun-18 05:31N 51°53' E 004°25'0 0.0
2016-Jun-18 04:31N 51°53' E 004°25'0 0.0
2016-Jun-18 03:33N 51°53' E 004°25'0 0.0
2016-Jun-18 02:33N 51°53' E 004°25'0 0.0
2016-Jun-18 01:29N 51°53' E 004°25'0 0.0
2016-Jun-18 00:32N 51°53' E 004°25'0 0.0
2016-Jun-17 23:32N 51°53' E 004°25'0 0.0
2016-Jun-17 22:31N 51°53' E 004°25'0 0.0
2016-Jun-17 21:31N 51°53' E 004°25'0 0.0
2016-Jun-17 20:33N 51°53' E 004°25'0 0.0
2016-Jun-17 19:33N 51°53' E 004°25'0 0.0
2016-Jun-17 18:29N 51°53' E 004°25'0 0.0
2016-Jun-17 17:29N 51°53' E 004°25'0 0.0
2016-Jun-17 16:32N 51°53' E 004°25'0 0.0
2016-Jun-17 15:31N 51°53' E 004°25'0 0.0
2016-Jun-17 14:31N 51°53' E 004°25'0 0.0
2016-Jun-17 13:33N 51°53' E 004°25'8 7.8
2016-Jun-17 12:34N 51°56' E 004°13'6 5.9
2016-Jun-17 11:33N 51°57' E 004°04'0 0.0
2016-Jun-17 10:34N 51°57' E 004°04'0 0.0
2016-Jun-17 09:30N 51°57' E 004°04'0 0.0
2016-Jun-17 08:33N 51°57' E 004°04'0 0.0
2016-Jun-17 07:32N 51°57' E 004°04'  
Track history (hours):
 
Tides and Currents Weather Stations Pressure Air Temp Water Temp Dewpoint Dewpoint Depression Visibility Wind Speed Wind Dir Waves Ship Positions

Anne Sibum

Last reported at 2016-Jun-27 07:31 UTC. Time now 2016-Jun-27 07:48 UTC.
Position N 51°59' E 004°02'.

Length 151 m; draft 7.5 m.

Type: Ship (hazmat cat A). MMSI: 209322000.

Date/timePositionNaut miles runAvg speedWind from/ knotsBaromVisibWave heightAir tempDewpointWater temp
2016-Jun-27 07:31N 51°59' E 004°02'0 0.0
2016-Jun-27 06:31N 51°59' E 004°02'0 0.0
2016-Jun-27 05:33N 51°59' E 004°02'0 0.0
2016-Jun-27 04:33N 51°59' E 004°02'0 0.0
2016-Jun-27 03:32N 51°59' E 004°02'0 0.0
2016-Jun-27 02:32N 51°59' E 004°02'0 0.0
2016-Jun-27 01:28N 51°59' E 004°02'0 0.0
2016-Jun-27 00:31N 51°59' E 004°02'0 0.0
2016-Jun-26 23:28N 51°59' E 004°02'0 0.0
2016-Jun-26 22:33N 51°59' E 004°02'0 0.0
2016-Jun-26 21:33N 51°59' E 004°02'0 0.0
2016-Jun-26 20:32N 51°59' E 004°02'0 0.0
2016-Jun-26 19:32N 51°59' E 004°02'0 0.0
2016-Jun-26 18:33N 51°59' E 004°02'1 1.2
2016-Jun-26 17:33N 51°58' E 004°03'0 0.0
2016-Jun-26 16:32N 51°58' E 004°03'0 0.0
2016-Jun-26 15:32N 51°58' E 004°03'0 0.0
2016-Jun-26 14:31N 51°58' E 004°03'0 0.0
2016-Jun-26 13:31N 51°58' E 004°03'0 0.0
2016-Jun-26 12:34N 51°58' E 004°03'0 0.0
2016-Jun-26 11:33N 51°58' E 004°03'0 0.0
2016-Jun-26 10:33N 51°58' E 004°03'0 0.0
2016-Jun-26 09:32N 51°58' E 004°03'0 0.0
2016-Jun-26 08:32N 51°58' E 004°03'1 1.0
2016-Jun-26 07:33N 51°57' E 004°04'0 0.1
2016-Jun-26 06:32N 51°57' E 004°04'0 0.0
2016-Jun-26 05:32N 51°57' E 004°04'0 0.0
2016-Jun-26 04:31N 51°57' E 004°04'0 0.0
2016-Jun-26 03:31N 51°57' E 004°04'0 0.0
2016-Jun-26 02:31N 51°57' E 004°04'0 0.0
2016-Jun-26 01:33N 51°57' E 004°04'0 0.0
2016-Jun-26 00:33N 51°57' E 004°04'0 0.0
2016-Jun-25 23:32N 51°57' E 004°04'0 0.0
2016-Jun-25 22:29N 51°57' E 004°04'0 0.2
2016-Jun-25 21:34N 51°57' E 004°04'1 0.8
2016-Jun-25 20:31N 51°58' E 004°03'0 0.0
2016-Jun-25 19:33N 51°58' E 004°03'0 0.0
2016-Jun-25 18:33N 51°58' E 004°03'0 0.0
2016-Jun-25 17:32N 51°58' E 004°03'1 1.2
2016-Jun-25 16:33N 51°58' E 004°02'2 1.6
2016-Jun-25 15:33N 51°57' E 004°00'0 0.0
2016-Jun-25 14:33N 51°57' E 004°00'0 0.0
2016-Jun-25 13:32N 51°57' E 004°00'0 0.0
2016-Jun-25 12:26N 51°57' E 004°00'0 0.0
2016-Jun-25 11:31N 51°57' E 004°00'0 0.0
2016-Jun-25 10:31N 51°57' E 004°00'2 2.3
2016-Jun-25 09:33N 51°58' E 004°03'1 0.6
2016-Jun-25 08:31N 51°57' E 004°03'0 0.0
2016-Jun-25 07:31N 51°57' E 004°03'0 0.0
2016-Jun-25 06:31N 51°57' E 004°03'0 0.0
2016-Jun-25 05:33N 51°57' E 004°03'0 0.0
2016-Jun-25 04:33N 51°57' E 004°03'0 0.0
2016-Jun-25 03:32N 51°57' E 004°03'2 2.3
2016-Jun-25 02:33N 51°59' E 004°05'1111.0
2016-Jun-25 01:33N 51°54' E 004°21'3 2.4
2016-Jun-25 00:28N 51°53' E 004°25'0 0.0
2016-Jun-24 23:28N 51°53' E 004°25'0 0.0
2016-Jun-24 22:31N 51°53' E 004°25'0 0.0
2016-Jun-24 21:33N 51°53' E 004°25'0 0.0
2016-Jun-24 20:30N 51°53' E 004°25'0 0.0
2016-Jun-24 19:26N 51°53' E 004°25'0 0.0
2016-Jun-24 18:32N 51°53' E 004°25'0 0.0
2016-Jun-24 17:31N 51°53' E 004°25'0 0.0
2016-Jun-24 16:32N 51°53' E 004°25'0 0.0
2016-Jun-24 15:31N 51°53' E 004°25'0 0.0
2016-Jun-24 14:30N 51°53' E 004°25'0 0.0
2016-Jun-24 13:33N 51°53' E 004°25'0 0.0
2016-Jun-24 12:33N 51°53' E 004°25'0 0.0
2016-Jun-24 11:34N 51°53' E 004°25'0 0.0
2016-Jun-24 10:33N 51°53' E 004°25'5 5.0
2016-Jun-24 09:33N 51°54' E 004°17'10 9.9
2016-Jun-24 08:33N 51°59' E 004°03'1312.6
2016-Jun-24 07:33N 51°58' E 003°43'5413.4
2016-Jun-24 03:32N 51°36' E 002°24'1312.9
2016-Jun-24 02:34N 51°26' E 002°11'1312.9
2016-Jun-24 01:33N 51°14' E 002°03'1414.4
2016-Jun-24 00:33N 51°05' E 001°46'1413.8
2016-Jun-23 23:32N 50°55' E 001°31'6115.0
2016-Jun-23 19:27N 50°22' E 000°09'1516.2
2016-Jun-23 18:33N 50°19' W 000°13'9315.0
2016-Jun-23 12:19N 50°10' W 002°38'1317.5
2016-Jun-23 11:33N 50°08' W 002°59'1817.7
2016-Jun-23 10:34N 50°04' W 003°26'1818.1
2016-Jun-23 09:33N 49°60' W 003°53'2017.3
2016-Jun-23 08:23N 49°59' W 004°25'1517.7
2016-Jun-23 07:33N 49°57' W 004°47'3816.7
2016-Jun-23 05:16N 49°55' W 005°47'5814.4
2016-Jun-23 01:14N 50°53' W 006°01'1717.2
2016-Jun-23 00:16N 51°09' W 005°60'5815.5
2016-Jun-22 20:33N 52°07' W 005°51'1414.4
2016-Jun-22 19:33N 52°21' W 005°48'10116.7
2016-Jun-22 13:32N 54°01' W 005°24'1616.3
2016-Jun-22 12:33N 54°17' W 005°21'1616.3
2016-Jun-22 11:33N 54°33' W 005°22'1313.3
2016-Jun-22 10:33N 54°42' W 005°39'9 4.1
2016-Jun-22 08:22N 54°38' W 005°53'0 0.0
2016-Jun-22 05:23N 54°38' W 005°53'0 0.0
2016-Jun-22 03:10N 54°38' W 005°53'0 0.0
2016-Jun-22 02:28N 54°38' W 005°53'0 0.0
2016-Jun-22 01:03N 54°38' W 005°53'0 0.0
2016-Jun-21 01:31N 54°38' W 005°53'6 6.5
2016-Jun-21 00:33N 54°42' W 005°45'1313.4
2016-Jun-20 23:34N 54°35' W 005°25'1716.6
2016-Jun-20 22:34N 54°19' W 005°22'1717.0
2016-Jun-20 21:33N 54°03' W 005°33'102 6.4
2016-Jun-20 05:34N 52°21' W 005°48'8315.5
2016-Jun-20 00:12N 50°58' W 005°49'1015.6
2016-Jun-19 23:33N 50°48' W 005°48'1616.0
2016-Jun-19 22:33N 50°32' W 005°51'4611.4
2016-Jun-19 18:31N 49°56' W 005°07'1415.1
2016-Jun-19 17:33N 49°58' W 004°45'1312.8
2016-Jun-19 16:33N 50°01' W 004°25'1515.1
2016-Jun-19 15:33N 50°03' W 004°02'1616.1
2016-Jun-19 14:33N 50°06' W 003°38'1717.3
2016-Jun-19 13:33N 50°09' W 003°11'1818.0
2016-Jun-19 12:33N 50°13' W 002°43'8616.0
2016-Jun-19 07:13N 50°28' W 000°32'1014.8
2016-Jun-19 06:32N 50°30' W 000°16'1616.0
2016-Jun-19 05:33N 50°34' E 000°08'1817.0
2016-Jun-19 04:31N 50°39' E 000°34'2317.5
2016-Jun-19 03:12N 50°52' E 001°04'1117.0
2016-Jun-19 02:34N 50°59' E 001°17'1615.8
2016-Jun-19 01:34N 51°09' E 001°37'1414.4
2016-Jun-19 00:33N 51°20' E 001°52'1514.8
2016-Jun-18 23:33N 51°32' E 002°06'6615.0
2016-Jun-18 19:12N 52°02' E 003°40'914.1
2016-Jun-18 18:33N 52°02' E 003°55'10 9.9
2016-Jun-18 17:34N 51°58' E 004°09'1010.0
2016-Jun-18 16:34N 51°54' E 004°24'1 1.0
2016-Jun-18 15:31N 51°53' E 004°26'0 0.0
2016-Jun-18 14:31N 51°53' E 004°26'0 0.0
2016-Jun-18 13:31N 51°53' E 004°26'0 0.0
2016-Jun-18 12:33N 51°53' E 004°26'0 0.0
2016-Jun-18 11:30N 51°53' E 004°26'0 0.0
2016-Jun-18 10:32N 51°53' E 004°26'1 1.3
2016-Jun-18 09:34N 51°54' E 004°24'1 1.2
2016-Jun-18 08:32N 51°53' E 004°25'0 0.0
2016-Jun-18 07:32N 51°53' E 004°25'0 0.0
2016-Jun-18 06:32N 51°53' E 004°25'0 0.0
2016-Jun-18 05:31N 51°53' E 004°25'0 0.0
2016-Jun-18 04:31N 51°53' E 004°25'0 0.0
2016-Jun-18 03:33N 51°53' E 004°25'0 0.0
2016-Jun-18 02:33N 51°53' E 004°25'0 0.0
2016-Jun-18 01:29N 51°53' E 004°25'0 0.0
2016-Jun-18 00:32N 51°53' E 004°25'0 0.0
2016-Jun-17 23:32N 51°53' E 004°25'0 0.0
2016-Jun-17 22:31N 51°53' E 004°25'0 0.0
2016-Jun-17 21:31N 51°53' E 004°25'0 0.0
2016-Jun-17 20:33N 51°53' E 004°25'0 0.0
2016-Jun-17 19:33N 51°53' E 004°25'0 0.0
2016-Jun-17 18:29N 51°53' E 004°25'0 0.0
2016-Jun-17 17:29N 51°53' E 004°25'0 0.0
2016-Jun-17 16:32N 51°53' E 004°25'0 0.0
2016-Jun-17 15:31N 51°53' E 004°25'0 0.0
2016-Jun-17 14:31N 51°53' E 004°25'0 0.0
2016-Jun-17 13:33N 51°53' E 004°25'8 7.8
2016-Jun-17 12:34N 51°56' E 004°13'6 5.9
2016-Jun-17 11:33N 51°57' E 004°04'0 0.0
2016-Jun-17 10:34N 51°57' E 004°04'0 0.0
2016-Jun-17 09:30N 51°57' E 004°04'0 0.0
2016-Jun-17 08:33N 51°57' E 004°04'0 0.0
2016-Jun-17 07:32N 51°57' E 004°04'  

Dump ship's entire track history